Hauptseite
METAR-TAF:

METAR-TAF

Flughäfen :

Newcastle upon Tyne, England

Newcastle Airport

Breite: 55-02N, Länge: 001-42W, Höhe: 81 m

Beobachtung

Neuester Wetterbericht von vor 16 Minuten, um 06:50 UTC
Wind 11 kt aus West/Südwest
Temperatur 1°C
Luftfeuchtigkeit 93%
Luftdruck 997 hPa
Sichtweite 10 km oder mehr
keine Wolken unter 1500 m und keine Kumulonimbus oder Gewitterwolken

METAR: EGNT 200650Z 25011KT CAVOK 01/00 Q0997

Zeit: 07:06 (07:06 UTC)

Prognose

Neuester Wetterbericht von vor 2 Stunden und 5 Minuten, um 05:01 UTC
Gültige Prognose vom 20 um 06 UTC bis 21 um 06 UTC
Wind 8 kt aus West
Sichtweite 10 km oder mehr
Leicht bewölkt in der Höhe von 2500 ft
Wahrscheinlichkeit 30% :
Zeitweise
vom 20 um 21 UTC bis 21 um 03 UTC
Sichtweite: 6000 m

TAF: EGNT 200501Z 2006/2106 26008KT 9999 FEW025 PROB30 TEMPO 2021/2103 6000

Wetterbeobachtungen und Prognosen von mehr als 4000 Flughäfen (METAR und TAF Bericht).

Die verfügbaren Stationen werden durch gelbe und rote Markierungen auf der Karte dargestellt.

Führen Sie die Maus auf sie, um den Namen der Station zu sehen.

Darauf klicken, um die Beobachtung von Wetterbeobachtungen und Prognosen zu sehen.

Um die Karte zu ändern : klicken Sie auf den grünen Tasten mit einem schwarzen Kreuz Zum Vergrößern, auf den grünen Button mit einem Gedankenstrich zu verkleinern, oder auf die grünen Pfeile für benachbarte Karten.


METAR-TAF: